Time;durP1;ratioP1;P1;durP2;ratioP2;P2;SDS_P1;SDS_P2;PMS_P1;PMS_P2;Temp;Humidity;BMP_temperature;BMP_pressure;BME280_temperature;BME280_humidity;BME280_pressure;Samples;Min_cycle;Max_cycle;Signal;HPM_P1;HPM_P2
2023/06/27 00:01:26;;;;;;;4.28;1.55;;;22.00;99.90;;;;;;4838026;29;20050;-77
2023/06/27 00:03:53;;;;;;;3.65;1.50;;;22.00;99.90;;;;;;4834739;29;20129;-78
2023/06/27 00:06:20;;;;;;;7.15;1.60;;;21.90;99.90;;;;;;4839251;29;20508;-77
2023/06/27 00:08:47;;;;;;;5.40;1.70;;;21.90;99.90;;;;;;4834477;29;20462;-77
2023/06/27 00:11:15;;;;;;;4.78;1.27;;;21.80;99.90;;;;;;4834960;29;20080;-77
2023/06/27 00:13:42;;;;;;;4.70;1.40;;;21.80;99.90;;;;;;4834573;29;20050;-77
2023/06/27 00:16:15;;;;;;;3.13;1.33;;;21.80;99.90;;;;;;4835820;29;20054;-76
2023/06/27 00:18:48;;;;;;;2.75;1.40;;;21.70;99.90;;;;;;4826532;29;20125;-77
2023/06/27 00:21:15;;;;;;;5.75;1.60;;;21.60;99.90;;;;;;4825520;29;20046;-76
2023/06/27 00:23:43;;;;;;;4.43;1.40;;;21.60;99.90;;;;;;4807160;29;20050;-76
2023/06/27 00:26:12;;;;;;;4.15;1.48;;;21.60;99.90;;;;;;4827609;29;20097;-76
2023/06/27 00:28:38;;;;;;;4.97;2.08;;;21.50;99.90;;;;;;4825616;29;20129;-77
2023/06/27 00:31:05;;;;;;;3.47;1.42;;;21.50;99.90;;;;;;4833215;29;20061;-76
2023/06/27 00:33:32;;;;;;;2.92;1.60;;;21.50;99.90;;;;;;4828030;29;20050;-77
2023/06/27 00:35:59;;;;;;;10.15;1.88;;;21.40;99.90;;;;;;4821766;29;20046;-76
2023/06/27 00:38:25;;;;;;;4.97;1.25;;;21.40;99.90;;;;;;4824428;29;20089;-75
2023/06/27 00:40:52;;;;;;;3.63;1.30;;;21.40;99.90;;;;;;4826411;29;20054;-75
2023/06/27 00:43:19;;;;;;;2.95;1.35;;;21.30;99.90;;;;;;4824993;29;20059;-76
2023/06/27 00:45:45;;;;;;;4.53;1.88;;;21.30;99.90;;;;;;4830518;29;20573;-77
2023/06/27 00:48:14;;;;;;;3.83;1.40;;;21.30;99.90;;;;;;4828073;29;20473;-77
2023/06/27 00:50:42;;;;;;;4.70;1.60;;;21.30;99.90;;;;;;4828340;29;20085;-76
2023/06/27 00:53:10;;;;;;;3.33;1.13;;;21.20;99.90;;;;;;4824926;29;20109;-76
2023/06/27 00:55:39;;;;;;;5.57;1.70;;;21.20;99.90;;;;;;4828851;29;20090;-77
2023/06/27 00:58:07;;;;;;;3.67;1.30;;;21.20;99.90;;;;;;4827199;29;20065;-77
2023/06/27 01:00:34;;;;;;;4.82;1.63;;;21.20;99.90;;;;;;4826185;29;20507;-76
2023/06/27 01:03:02;;;;;;;7.72;1.55;;;21.20;99.90;;;;;;4829134;29;20137;-77
2023/06/27 01:05:30;;;;;;;3.60;1.30;;;21.10;99.90;;;;;;4824818;29;20047;-77
2023/06/27 01:08:08;;;;;;;2.42;1.25;;;21.10;99.90;;;;;;4824885;29;20054;-76
2023/06/27 01:11:10;;;;;;;5.95;1.90;;;21.10;99.90;;;;;;4824837;29;20051;-76
2023/06/27 01:13:41;;;;;;;4.20;2.03;;;21.10;99.90;;;;;;4833057;29;20054;-76
2023/06/27 01:16:09;;;;;;;4.32;1.90;;;21.10;99.90;;;;;;4833585;29;20661;-76
2023/06/27 01:18:39;;;;;;;4.97;1.63;;;21.00;99.90;;;;;;4825256;29;20053;-75
2023/06/27 01:21:09;;;;;;;3.97;1.30;;;21.00;99.90;;;;;;4838667;29;20573;-76
2023/06/27 01:23:57;;;;;;;4.35;1.58;;;21.00;99.90;;;;;;4824078;29;20086;-76
2023/06/27 01:26:26;;;;;;;3.15;1.35;;;21.00;99.90;;;;;;4825439;29;20504;-76
2023/06/27 01:28:53;;;;;;;6.47;1.60;;;21.00;99.90;;;;;;4829282;29;20088;-75
2023/06/27 01:31:45;;;;;;;2.92;1.63;;;20.90;99.90;;;;;;4834884;29;20054;-76
2023/06/27 01:34:21;;;;;;;8.48;1.35;;;20.90;99.90;;;;;;4825117;29;20118;-76
2023/06/27 01:36:58;;;;;;;6.53;2.08;;;20.90;99.90;;;;;;4826130;29;20050;-76
2023/06/27 01:39:44;;;;;;;5.30;1.92;;;20.90;99.90;;;;;;4828381;29;20083;-76
2023/06/27 01:42:16;;;;;;;6.03;1.30;;;20.80;99.90;;;;;;4824618;29;20186;-76
2023/06/27 01:44:48;;;;;;;4.85;1.45;;;20.80;99.90;;;;;;4832709;29;20102;-77
2023/06/27 01:47:17;;;;;;;4.47;1.67;;;20.80;99.90;;;;;;4829027;29;20191;-76
2023/06/27 01:49:45;;;;;;;4.70;1.33;;;20.70;99.90;;;;;;4824894;29;20137;-77
2023/06/27 01:52:12;;;;;;;6.68;1.50;;;20.70;99.90;;;;;;4822813;29;20058;-75
2023/06/27 01:54:43;;;;;;;3.15;1.27;;;20.70;99.90;;;;;;4830755;29;20057;-74
2023/06/27 01:57:11;;;;;;;4.00;1.33;;;20.70;99.90;;;;;;4825161;29;20061;-75
2023/06/27 01:59:38;;;;;;;3.40;1.30;;;20.60;99.90;;;;;;4806984;29;20050;-77
2023/06/27 02:02:05;;;;;;;3.63;1.60;;;20.70;99.90;;;;;;4823854;29;20617;-76
2023/06/27 02:04:32;;;;;;;6.65;1.52;;;20.60;99.90;;;;;;4823343;29;20054;-77
2023/06/27 02:06:59;;;;;;;4.32;1.48;;;20.70;99.90;;;;;;4823605;29;20573;-77
2023/06/27 02:09:25;;;;;;;4.25;1.40;;;20.60;99.90;;;;;;4826723;29;20670;-76
2023/06/27 02:11:52;;;;;;;3.03;1.90;;;20.70;99.90;;;;;;4825214;29;20086;-76
2023/06/27 02:14:19;;;;;;;4.22;1.80;;;20.60;99.90;;;;;;4829623;29;20050;-77
2023/06/27 02:16:46;;;;;;;3.40;1.40;;;20.60;99.90;;;;;;4826696;29;20054;-77
2023/06/27 02:19:12;;;;;;;4.63;1.63;;;20.60;99.90;;;;;;4827060;29;20115;-75
2023/06/27 02:21:39;;;;;;;7.15;1.55;;;20.50;99.90;;;;;;4826744;29;20578;-76
2023/06/27 02:24:06;;;;;;;5.45;1.50;;;20.50;99.90;;;;;;4829527;29;20046;-76
2023/06/27 02:26:33;;;;;;;4.72;1.48;;;20.50;99.90;;;;;;4826584;29;20050;-75
2023/06/27 02:29:00;;;;;;;5.85;1.80;;;20.50;99.90;;;;;;4828674;29;20054;-75
2023/06/27 02:31:26;;;;;;;2.97;1.35;;;20.50;99.90;;;;;;4822060;29;20060;-75
2023/06/27 02:33:53;;;;;;;4.82;1.40;;;20.50;99.90;;;;;;4823827;29;20060;-75
2023/06/27 02:36:22;;;;;;;7.05;1.65;;;20.50;99.90;;;;;;4822491;29;20092;-77
2023/06/27 02:38:49;;;;;;;5.72;1.60;;;20.50;99.90;;;;;;4824747;29;20061;-76
2023/06/27 02:41:16;;;;;;;5.88;1.75;;;20.50;99.90;;;;;;4824777;29;20093;-77
2023/06/27 02:43:43;;;;;;;6.13;1.67;;;20.40;99.90;;;;;;4829706;29;20103;-77
2023/06/27 02:46:09;;;;;;;4.07;1.38;;;20.40;99.90;;;;;;4825418;29;20058;-77
2023/06/27 02:48:36;;;;;;;5.80;1.90;;;20.40;99.90;;;;;;4824048;29;20129;-75
2023/06/27 02:51:03;;;;;;;2.88;1.60;;;20.40;99.90;;;;;;4823028;29;20054;-77
2023/06/27 02:53:30;;;;;;;4.43;1.60;;;20.40;99.90;;;;;;4824135;29;20077;-75
2023/06/27 02:56:01;;;;;;;5.00;1.63;;;20.40;99.90;;;;;;4828009;29;20115;-75
2023/06/27 02:58:31;;;;;;;3.72;1.40;;;20.40;99.90;;;;;;4823759;29;20055;-76
2023/06/27 03:00:59;;;;;;;2.83;1.55;;;20.40;99.90;;;;;;4822979;29;20170;-76
2023/06/27 03:03:26;;;;;;;6.75;2.00;;;20.40;99.90;;;;;;4824518;29;20046;-76
2023/06/27 03:05:53;;;;;;;6.80;1.63;;;20.40;99.90;;;;;;4823520;29;20051;-75
2023/06/27 03:08:20;;;;;;;5.38;1.67;;;20.40;99.90;;;;;;4826732;29;20046;-75
2023/06/27 03:10:46;;;;;;;3.35;1.60;;;20.40;99.90;;;;;;4824263;29;20042;-76
2023/06/27 03:13:13;;;;;;;6.28;1.88;;;20.40;99.90;;;;;;4830289;29;20093;-76
2023/06/27 03:15:40;;;;;;;4.28;1.63;;;20.40;99.90;;;;;;4822739;29;20094;-75
2023/06/27 03:18:07;;;;;;;6.13;1.85;;;20.40;99.90;;;;;;4824328;29;20074;-75
2023/06/27 03:20:33;;;;;;;4.25;1.80;;;20.40;99.90;;;;;;4823133;29;20148;-76
2023/06/27 03:23:00;;;;;;;4.28;1.52;;;20.40;99.90;;;;;;4825759;29;20054;-75
2023/06/27 03:25:27;;;;;;;4.88;1.73;;;20.40;99.90;;;;;;4829701;29;20054;-77
2023/06/27 03:27:54;;;;;;;5.10;1.70;;;20.30;99.90;;;;;;4806464;29;20133;-77
2023/06/27 03:30:20;;;;;;;5.13;1.60;;;20.30;99.90;;;;;;4822426;29;20058;-76
2023/06/27 03:32:47;;;;;;;6.55;1.88;;;20.40;99.90;;;;;;4823690;29;20081;-78
2023/06/27 03:35:14;;;;;;;5.07;1.88;;;20.30;99.90;;;;;;4824593;29;20054;-77
2023/06/27 03:37:41;;;;;;;6.72;1.80;;;20.30;99.90;;;;;;4824794;29;20127;-77
2023/06/27 03:40:08;;;;;;;4.50;1.60;;;20.30;99.90;;;;;;4830083;29;20061;-77
2023/06/27 03:42:34;;;;;;;6.75;1.85;;;20.30;99.90;;;;;;4824502;29;20055;-76
2023/06/27 03:45:01;;;;;;;6.38;1.58;;;20.30;99.90;;;;;;4808625;29;20627;-77
2023/06/27 03:47:29;;;;;;;5.50;1.70;;;20.30;99.90;;;;;;4823248;29;20115;-76
2023/06/27 03:49:56;;;;;;;4.70;1.92;;;20.30;99.90;;;;;;4828883;29;20485;-77
2023/06/27 03:52:23;;;;;;;5.70;1.73;;;20.30;99.90;;;;;;4824414;29;20086;-75
2023/06/27 03:54:49;;;;;;;3.70;1.60;;;20.30;99.90;;;;;;4835470;29;20058;-78
2023/06/27 03:57:16;;;;;;;5.93;1.98;;;20.30;99.90;;;;;;4828533;29;20051;-77
2023/06/27 03:59:43;;;;;;;8.55;1.80;;;20.30;99.90;;;;;;4810003;29;20126;-76
2023/06/27 04:02:10;;;;;;;6.05;1.83;;;20.30;99.90;;;;;;4826138;29;20059;-76
2023/06/27 04:04:36;;;;;;;6.03;2.40;;;20.30;99.90;;;;;;4829029;29;20054;-76
2023/06/27 04:07:03;;;;;;;7.82;1.90;;;20.30;99.90;;;;;;4825785;29;20497;-77
2023/06/27 04:09:30;;;;;;;5.10;1.70;;;20.30;99.90;;;;;;4837730;29;20046;-79
2023/06/27 04:11:59;;;;;;;4.82;1.65;;;20.40;99.90;;;;;;4829862;29;20080;-77
2023/06/27 04:14:27;;;;;;;6.13;1.55;;;20.40;99.90;;;;;;4826749;29;20060;-77
2023/06/27 04:16:54;;;;;;;5.57;1.63;;;20.40;99.90;;;;;;4830215;29;20058;-77
2023/06/27 04:19:21;;;;;;;5.65;1.73;;;20.40;99.90;;;;;;4830321;29;20058;-78
2023/06/27 04:21:48;;;;;;;3.63;2.03;;;20.40;99.90;;;;;;4827377;29;20062;-78
2023/06/27 04:24:14;;;;;;;5.78;1.80;;;20.40;99.90;;;;;;4835358;29;20050;-77
2023/06/27 04:26:42;;;;;;;5.47;1.77;;;20.40;99.90;;;;;;4829534;29;20410;-78
2023/06/27 04:29:09;;;;;;;4.25;1.77;;;20.40;99.90;;;;;;4826029;29;20054;-78
2023/06/27 04:31:36;;;;;;;6.50;2.05;;;20.40;99.90;;;;;;4826437;29;20054;-78
2023/06/27 04:34:03;;;;;;;3.58;2.00;;;20.50;99.90;;;;;;4830289;29;20137;-77
2023/06/27 04:36:30;;;;;;;6.18;1.80;;;20.50;99.90;;;;;;4827046;29;20417;-78
2023/06/27 04:38:56;;;;;;;6.05;1.70;;;20.50;99.90;;;;;;4834676;29;20069;-78
2023/06/27 04:41:23;;;;;;;3.90;1.95;;;20.50;99.90;;;;;;4826882;29;20115;-78
2023/06/27 04:43:50;;;;;;;5.22;1.60;;;20.50;99.90;;;;;;4826998;29;20076;-78
2023/06/27 04:46:17;;;;;;;5.25;1.52;;;20.50;99.90;;;;;;4827031;29;20072;-78
2023/06/27 04:48:44;;;;;;;4.90;1.75;;;20.60;99.90;;;;;;4828882;29;20203;-77
2023/06/27 04:51:10;;;;;;;4.30;1.83;;;20.60;99.90;;;;;;4828155;29;20085;-78
2023/06/27 04:53:37;;;;;;;4.20;1.60;;;20.60;99.90;;;;;;4833638;29;20107;-78
2023/06/27 04:56:04;;;;;;;4.82;1.75;;;20.60;99.90;;;;;;4829002;29;20066;-78
2023/06/27 04:58:31;;;;;;;5.82;1.63;;;20.60;99.90;;;;;;4827163;29;20085;-78
2023/06/27 05:00:57;;;;;;;5.18;1.65;;;20.60;99.90;;;;;;4826014;29;20127;-78
2023/06/27 05:03:24;;;;;;;5.97;1.70;;;20.60;99.90;;;;;;4829220;29;20057;-78
2023/06/27 05:05:51;;;;;;;7.32;2.30;;;20.60;99.90;;;;;;4828682;29;20054;-78
2023/06/27 05:08:18;;;;;;;6.90;1.98;;;20.60;99.90;;;;;;4834464;29;20054;-78
2023/06/27 05:10:45;;;;;;;5.88;1.90;;;20.60;99.90;;;;;;4825055;29;20108;-78
2023/06/27 05:13:15;;;;;;;5.68;1.90;;;20.60;99.90;;;;;;4828347;29;20050;-78
2023/06/27 05:15:42;;;;;;;5.22;1.90;;;20.60;99.90;;;;;;4826211;29;20058;-78
2023/06/27 05:18:13;;;;;;;7.07;1.90;;;20.60;99.90;;;;;;4835782;29;20054;-77
2023/06/27 05:20:44;;;;;;;6.20;2.05;;;20.60;99.90;;;;;;4838772;29;20050;-77
2023/06/27 05:23:11;;;;;;;5.65;2.30;;;20.60;99.90;;;;;;4841918;29;20556;-77
2023/06/27 05:25:38;;;;;;;4.70;1.90;;;20.60;99.90;;;;;;4829540;29;20115;-77
2023/06/27 05:28:05;;;;;;;3.28;1.92;;;20.60;99.90;;;;;;4828153;29;20050;-77
2023/06/27 05:30:32;;;;;;;7.35;2.15;;;20.60;99.90;;;;;;4838022;29;20131;-77
2023/06/27 05:33:01;;;;;;;4.13;1.88;;;20.60;99.90;;;;;;4830534;29;20110;-78
2023/06/27 05:35:28;;;;;;;5.55;2.00;;;20.60;99.90;;;;;;4829422;29;20050;-78
2023/06/27 05:37:55;;;;;;;5.90;2.20;;;20.60;99.90;;;;;;4832650;29;20058;-78
2023/06/27 05:40:22;;;;;;;5.60;1.90;;;20.60;99.90;;;;;;4824795;29;20101;-78
2023/06/27 05:42:48;;;;;;;5.22;2.05;;;20.60;99.90;;;;;;4827856;29;20054;-78
2023/06/27 05:45:15;;;;;;;3.83;1.75;;;20.60;99.90;;;;;;4825902;29;20050;-78
2023/06/27 05:47:44;;;;;;;4.15;2.60;;;20.70;99.90;;;;;;4830519;29;20050;-78
2023/06/27 05:50:11;;;;;;;5.65;1.90;;;20.70;99.90;;;;;;4830344;29;20133;-78
2023/06/27 05:52:38;;;;;;;10.60;2.40;;;20.80;99.90;;;;;;4832401;29;20623;-78
2023/06/27 05:55:05;;;;;;;4.50;1.65;;;20.80;99.90;;;;;;4826481;29;20122;-79
2023/06/27 05:57:32;;;;;;;4.75;1.60;;;20.90;99.90;;;;;;4825395;29;20208;-79
2023/06/27 05:59:59;;;;;;;3.33;2.00;;;20.90;99.90;;;;;;4824440;29;20050;-79
2023/06/27 06:02:26;;;;;;;6.03;1.67;;;21.00;99.90;;;;;;4828856;29;20447;-79
2023/06/27 06:04:54;;;;;;;5.65;1.90;;;21.10;99.90;;;;;;4830973;29;20050;-79
2023/06/27 06:07:20;;;;;;;6.82;1.98;;;21.10;99.90;;;;;;4824113;29;20051;-77
2023/06/27 06:09:47;;;;;;;9.07;1.92;;;21.20;99.90;;;;;;4823531;29;20049;-78
2023/06/27 06:12:14;;;;;;;6.75;1.75;;;21.30;99.90;;;;;;4827044;29;20050;-77
2023/06/27 06:14:40;;;;;;;6.63;2.65;;;21.40;99.90;;;;;;4827809;29;20414;-78
2023/06/27 06:17:07;;;;;;;6.40;2.10;;;21.50;99.90;;;;;;4828967;29;20108;-79
2023/06/27 06:19:34;;;;;;;9.40;2.70;;;21.50;99.90;;;;;;4832721;29;20091;-77
2023/06/27 06:22:00;;;;;;;6.63;2.00;;;21.60;99.90;;;;;;4825580;29;20133;-78
2023/06/27 06:24:27;;;;;;;6.55;1.77;;;21.70;99.90;;;;;;4825375;29;20054;-78
2023/06/27 06:26:54;;;;;;;7.03;1.73;;;21.80;99.90;;;;;;4825811;29;20050;-76
2023/06/27 06:29:21;;;;;;;9.80;1.77;;;21.90;99.90;;;;;;4825751;29;20046;-78
2023/06/27 06:31:47;;;;;;;4.65;1.77;;;21.90;99.90;;;;;;4828344;29;20178;-79
2023/06/27 06:34:14;;;;;;;5.15;1.50;;;22.00;99.90;;;;;;4835270;29;20486;-79
2023/06/27 06:36:41;;;;;;;5.43;1.80;;;22.10;99.90;;;;;;4827226;29;20050;-78
2023/06/27 06:39:07;;;;;;;9.57;1.73;;;22.10;99.90;;;;;;4825324;29;20077;-79
2023/06/27 06:41:34;;;;;;;5.60;1.70;;;22.20;99.90;;;;;;4825267;29;20062;-79
2023/06/27 06:44:01;;;;;;;3.78;1.73;;;22.30;99.90;;;;;;4829138;29;20081;-78
2023/06/27 06:46:28;;;;;;;5.65;1.58;;;22.40;99.90;;;;;;4823665;29;20089;-79
2023/06/27 06:48:54;;;;;;;8.18;1.95;;;22.50;99.90;;;;;;4829119;29;20117;-79
2023/06/27 06:51:23;;;;;;;4.22;1.40;;;22.50;99.90;;;;;;4827873;29;20430;-79
2023/06/27 06:53:49;;;;;;;8.52;1.70;;;22.60;99.90;;;;;;4827114;29;20055;-79
2023/06/27 06:56:16;;;;;;;6.78;2.00;;;22.70;99.90;;;;;;4827393;29;20147;-79
2023/06/27 06:58:43;;;;;;;10.82;2.08;;;22.70;99.90;;;;;;4829404;29;20085;-79
2023/06/27 07:01:10;;;;;;;6.65;2.00;;;22.70;99.90;;;;;;4812638;29;20079;-78
2023/06/27 07:03:36;;;;;;;3.42;1.80;;;22.70;99.90;;;;;;4835182;29;20054;-79
2023/06/27 07:06:03;;;;;;;5.97;1.90;;;22.70;99.90;;;;;;4827821;29;20046;-78
2023/06/27 07:08:30;;;;;;;5.45;1.70;;;22.80;99.90;;;;;;4828349;29;20129;-78
2023/06/27 07:10:57;;;;;;;6.45;1.90;;;22.90;99.90;;;;;;4832201;29;20062;-76
2023/06/27 07:13:24;;;;;;;8.00;1.83;;;23.00;99.90;;;;;;4829991;29;20090;-77
2023/06/27 07:15:50;;;;;;;12.45;2.08;;;23.10;99.90;;;;;;4825053;29;20058;-77
2023/06/27 07:18:18;;;;;;;7.10;2.05;;;23.10;99.90;;;;;;4831752;29;20592;-77
2023/06/27 07:20:45;;;;;;;6.40;1.73;;;23.20;99.90;;;;;;4823493;29;20372;-77
2023/06/27 07:23:12;;;;;;;6.85;1.92;;;23.20;99.90;;;;;;4822955;29;20569;-78
2023/06/27 07:25:39;;;;;;;3.60;1.80;;;23.20;99.90;;;;;;4823508;29;20051;-78
2023/06/27 07:28:06;;;;;;;8.30;2.13;;;23.20;99.60;;;;;;4807771;29;20110;-77
2023/06/27 07:30:33;;;;;;;4.88;2.10;;;23.20;99.80;;;;;;4824150;29;20054;-77
2023/06/27 07:33:00;;;;;;;3.60;1.83;;;23.20;99.80;;;;;;4834944;29;20050;-77
2023/06/27 07:35:29;;;;;;;9.13;2.05;;;23.30;99.70;;;;;;4824831;29;20062;-77
2023/06/27 07:37:55;;;;;;;5.80;1.85;;;23.30;99.90;;;;;;4824412;29;20093;-77
2023/06/27 07:40:22;;;;;;;5.57;1.83;;;23.40;99.10;;;;;;4823558;29;20062;-77
2023/06/27 07:42:49;;;;;;;3.17;1.45;;;23.40;99.40;;;;;;4829183;29;20050;-77
2023/06/27 07:45:16;;;;;;;6.05;2.42;;;23.50;99.20;;;;;;4824026;29;20099;-77
2023/06/27 07:47:43;;;;;;;4.97;1.80;;;23.40;98.70;;;;;;4833587;29;20054;-79
2023/06/27 07:50:10;;;;;;;8.93;2.30;;;23.40;98.70;;;;;;4823985;29;20061;-77
2023/06/27 07:52:36;;;;;;;7.38;1.92;;;23.40;98.90;;;;;;4826345;29;20055;-78
2023/06/27 07:55:03;;;;;;;4.43;1.83;;;23.40;99.10;;;;;;4811487;29;20503;-77
2023/06/27 07:57:30;;;;;;;5.40;1.83;;;23.40;99.20;;;;;;4830670;29;20083;-77
2023/06/27 07:59:57;;;;;;;6.50;1.85;;;23.50;99.20;;;;;;4825719;29;20058;-78
2023/06/27 08:02:25;;;;;;;5.90;1.60;;;23.50;99.30;;;;;;4837719;29;20050;-77
2023/06/27 08:04:52;;;;;;;8.02;2.38;;;23.50;98.50;;;;;;4826574;29;20545;-78
2023/06/27 08:07:18;;;;;;;5.78;1.55;;;23.60;98.90;;;;;;4828085;29;20051;-79
2023/06/27 08:09:45;;;;;;;4.78;1.80;;;23.70;99.40;;;;;;4827569;29;20516;-79
2023/06/27 08:12:12;;;;;;;8.65;2.05;;;23.70;99.20;;;;;;4832021;29;20074;-79
2023/06/27 08:14:42;;;;;;;5.93;2.25;;;23.70;99.20;;;;;;4813287;29;20564;-79
2023/06/27 08:17:09;;;;;;;;;;;23.70;99.40;;;;;;4833389;29;20114;-79
2023/06/27 08:19:35;;;;;;;6.07;1.80;;;23.70;99.30;;;;;;4813324;29;20292;-79
2023/06/27 08:22:03;;;;;;;6.70;1.58;;;23.70;99.20;;;;;;4828781;29;20050;-79
2023/06/27 08:24:30;;;;;;;6.13;1.90;;;23.80;99.10;;;;;;4827044;29;20130;-79
2023/06/27 08:26:57;;;;;;;6.47;2.08;;;23.90;98.70;;;;;;4834891;29;20050;-79
2023/06/27 08:29:25;;;;;;;5.10;2.10;;;23.90;99.10;;;;;;4830116;29;20070;-79
2023/06/27 08:31:58;;;;;;;3.92;1.75;;;23.90;98.50;;;;;;4833513;29;20061;-79
2023/06/27 08:34:33;;;;;;;10.10;2.28;;;24.00;98.80;;;;;;4828493;29;20099;-79
2023/06/27 08:37:00;;;;;;;5.82;1.85;;;23.80;98.90;;;;;;4841975;29;20050;-79
2023/06/27 08:39:28;;;;;;;11.82;2.30;;;23.70;98.50;;;;;;4829681;29;20058;-78
2023/06/27 08:41:57;;;;;;;5.70;2.15;;;23.70;98.30;;;;;;4839382;29;20505;-79
2023/06/27 08:44:24;;;;;;;6.95;2.35;;;23.80;98.90;;;;;;4831594;29;20119;-77
2023/06/27 08:46:51;;;;;;;8.40;2.08;;;23.80;99.00;;;;;;4825111;29;20097;-77
2023/06/27 08:49:21;;;;;;;6.35;2.00;;;23.70;98.60;;;;;;4809865;29;20050;-77
2023/06/27 08:51:50;;;;;;;7.45;2.03;;;23.70;98.50;;;;;;4827105;29;20058;-77
2023/06/27 08:54:27;;;;;;;6.35;1.85;;;23.80;98.60;;;;;;4826562;29;20054;-77
2023/06/27 08:56:54;;;;;;;6.85;2.13;;;23.90;98.70;;;;;;4830667;29;20062;-77
2023/06/27 08:59:26;;;;;;;6.35;1.70;;;23.80;98.50;;;;;;4813293;29;20106;-76
2023/06/27 09:01:54;;;;;;;6.13;2.15;;;23.90;98.70;;;;;;4820406;29;20079;-77
2023/06/27 09:04:22;;;;;;;17.70;2.08;;;23.90;98.50;;;;;;4813926;29;20086;-77
2023/06/27 09:06:49;;;;;;;8.38;2.28;;;24.00;98.20;;;;;;4828200;29;20054;-76
2023/06/27 09:09:17;;;;;;;5.07;1.55;;;24.00;98.50;;;;;;4832358;29;20046;-76
2023/06/27 09:11:44;;;;;;;8.45;2.10;;;24.10;98.20;;;;;;4839210;29;20046;-77
2023/06/27 09:14:11;;;;;;;5.90;1.77;;;24.20;98.50;;;;;;4831490;29;20134;-77
2023/06/27 09:16:38;;;;;;;5.55;1.70;;;24.30;98.40;;;;;;4829095;29;20083;-77
2023/06/27 09:19:05;;;;;;;4.45;1.73;;;24.30;98.40;;;;;;4825041;29;20086;-77
2023/06/27 09:21:33;;;;;;;6.05;1.90;;;24.10;98.00;;;;;;4828569;29;20114;-77
2023/06/27 09:24:05;;;;;;;4.88;1.52;;;24.20;98.50;;;;;;4825787;29;20126;-78
2023/06/27 09:26:32;;;;;;;6.97;1.75;;;24.30;98.30;;;;;;4836051;29;20473;-78
2023/06/27 09:29:00;;;;;;;5.95;1.65;;;24.30;98.20;;;;;;4829766;29;20470;-78
2023/06/27 09:31:28;;;;;;;7.55;1.90;;;24.50;99.00;;;;;;4824438;29;20042;-78
2023/06/27 09:34:05;;;;;;;8.13;1.88;;;24.50;98.90;;;;;;4824476;29;20050;-77
2023/06/27 09:36:36;;;;;;;6.63;1.77;;;24.70;98.20;;;;;;4828970;29;20072;-77
2023/06/27 09:39:07;;;;;;;;;;;24.70;97.40;;;;;;4826330;29;20086;-77
2023/06/27 09:41:50;;;;;;;8.23;1.67;;;24.60;97.80;;;;;;4833776;29;20007;-77
2023/06/27 09:44:22;;;;;;;4.22;1.40;;;24.50;97.30;;;;;;4827575;29;20058;-78
2023/06/27 09:46:53;;;;;;;14.93;2.33;;;24.50;97.10;;;;;;4824280;29;20057;-76
2023/06/27 09:49:22;;;;;;;5.22;2.35;;;24.50;97.50;;;;;;4824945;29;20120;-76
2023/06/27 09:51:49;;;;;;;7.55;1.75;;;24.50;97.80;;;;;;4829032;29;20046;-77
2023/06/27 09:54:21;;;;;;;5.78;1.73;;;24.60;97.50;;;;;;4825077;29;20171;-77
2023/06/27 09:56:52;;;;;;;6.70;2.08;;;24.50;97.40;;;;;;4835588;29;20050;-79
2023/06/27 09:59:21;;;;;;;9.07;1.80;;;24.40;97.30;;;;;;4828522;29;20096;-77
2023/06/27 10:01:51;;;;;;;9.68;2.05;;;24.40;97.80;;;;;;4832695;29;20051;-77
2023/06/27 10:04:18;;;;;;;7.90;1.80;;;24.40;97.70;;;;;;4821488;29;20081;-77
2023/06/27 10:06:45;;;;;;;6.80;1.67;;;24.40;97.90;;;;;;4829012;29;20144;-77
2023/06/27 10:09:13;;;;;;;6.45;1.98;;;24.40;97.20;;;;;;4821726;29;20054;-77
2023/06/27 10:11:40;;;;;;;7.68;2.05;;;24.40;96.80;;;;;;4832949;29;20049;-77
2023/06/27 10:14:07;;;;;;;7.35;1.73;;;24.50;96.90;;;;;;4828497;29;20085;-77
2023/06/27 10:16:35;;;;;;;7.13;1.98;;;24.50;96.10;;;;;;4828147;29;20133;-77
2023/06/27 10:19:03;;;;;;;7.68;1.52;;;24.50;95.60;;;;;;4827128;29;20082;-77
2023/06/27 10:21:30;;;;;;;5.38;1.60;;;24.50;95.30;;;;;;4831451;29;20133;-77
2023/06/27 10:24:01;;;;;;;6.68;2.03;;;24.50;95.60;;;;;;4825433;29;20050;-77
2023/06/27 10:26:28;;;;;;;5.97;1.73;;;24.50;96.70;;;;;;4833789;29;20075;-77
2023/06/27 10:28:55;;;;;;;6.40;2.20;;;24.70;96.50;;;;;;4824478;29;20199;-77
2023/06/27 10:31:44;;;;;;;7.75;1.77;;;24.70;95.70;;;;;;4824170;29;20047;-77
2023/06/27 10:34:20;;;;;;;5.95;2.15;;;24.80;95.70;;;;;;4823338;29;20462;-77
2023/06/27 10:36:56;;;;;;;7.25;1.90;;;24.80;95.40;;;;;;4828174;29;20090;-78
2023/06/27 10:39:32;;;;;;;4.65;1.75;;;24.80;95.90;;;;;;4824582;29;20046;-77
2023/06/27 10:42:00;;;;;;;4.72;1.92;;;24.90;96.30;;;;;;4834984;29;20057;-78
2023/06/27 10:44:28;;;;;;;4.45;2.00;;;25.00;95.60;;;;;;4806344;29;20054;-77
2023/06/27 10:47:17;;;;;;;5.38;1.80;;;25.10;95.90;;;;;;4823908;29;20806;-78
2023/06/27 10:49:49;;;;;;;6.57;1.98;;;25.20;96.40;;;;;;4825024;29;20050;-77
2023/06/27 10:52:24;;;;;;;7.90;1.50;;;25.30;96.20;;;;;;4822787;29;20046;-77
2023/06/27 10:55:18;;;;;;;4.05;1.50;;;25.40;95.70;;;;;;4825411;29;20050;-77
2023/06/27 10:57:48;;;;;;;7.28;2.15;;;25.40;95.60;;;;;;4823504;29;20505;-78
2023/06/27 11:00:22;;;;;;;10.35;1.90;;;25.20;96.10;;;;;;4806639;29;20046;-78
2023/06/27 11:02:53;;;;;;;6.85;1.70;;;25.10;94.80;;;;;;4823500;29;20057;-77
2023/06/27 11:05:36;;;;;;;6.55;1.63;;;25.10;95.00;;;;;;4826004;29;20511;-77
2023/06/27 11:08:07;;;;;;;7.30;2.20;;;25.00;94.60;;;;;;4826393;29;20070;-77
2023/06/27 11:10:34;;;;;;;6.22;1.73;;;25.00;94.90;;;;;;4829227;29;20045;-77
2023/06/27 11:13:18;;;;;;;7.57;2.03;;;24.70;94.00;;;;;;4822205;29;20077;-76
2023/06/27 11:15:45;;;;;;;7.40;1.90;;;24.70;94.60;;;;;;4824086;29;20100;-76
2023/06/27 11:18:14;;;;;;;4.90;1.85;;;24.80;94.70;;;;;;4823633;29;20516;-77
2023/06/27 11:20:42;;;;;;;7.03;1.70;;;24.90;95.20;;;;;;4825892;29;20540;-78
2023/06/27 11:23:11;;;;;;;10.18;1.63;;;25.00;94.90;;;;;;4823942;29;20115;-78
2023/06/27 11:25:42;;;;;;;5.63;1.65;;;25.10;94.80;;;;;;4820446;29;20539;-78
2023/06/27 11:28:10;;;;;;;7.78;1.80;;;25.20;93.40;;;;;;4823177;29;20565;-78
2023/06/27 11:30:38;;;;;;;10.90;2.00;;;25.20;93.50;;;;;;4824217;29;20098;-78
2023/06/27 11:33:06;;;;;;;6.80;1.90;;;25.20;92.80;;;;;;4823126;29;20058;-77
2023/06/27 11:35:38;;;;;;;7.93;1.40;;;25.20;92.80;;;;;;4830250;29;20133;-77
2023/06/27 11:38:08;;;;;;;4.93;1.42;;;25.30;93.40;;;;;;4831267;29;20077;-77
2023/06/27 11:40:35;;;;;;;5.63;1.45;;;25.30;94.00;;;;;;4826958;29;20062;-77
2023/06/27 11:43:06;;;;;;;4.93;1.52;;;25.20;94.20;;;;;;4822841;29;20073;-78
2023/06/27 11:45:36;;;;;;;5.90;1.67;;;25.10;93.40;;;;;;4825466;29;20075;-78
2023/06/27 11:48:02;;;;;;;5.05;1.42;;;25.00;93.80;;;;;;4822793;29;20069;-78
2023/06/27 11:50:30;;;;;;;5.03;1.42;;;25.00;93.90;;;;;;4826765;29;20462;-78
2023/06/27 11:52:57;;;;;;;4.63;1.60;;;25.00;93.50;;;;;;4810578;29;20129;-78
2023/06/27 11:55:24;;;;;;;3.25;1.40;;;25.00;93.50;;;;;;4822925;29;20062;-77
2023/06/27 11:57:55;;;;;;;4.93;1.48;;;24.80;94.00;;;;;;4822449;29;20054;-78
2023/06/27 12:00:24;;;;;;;3.58;1.70;;;24.80;94.40;;;;;;4828550;29;20080;-77
2023/06/27 12:02:57;;;;;;;4.15;1.60;;;24.80;94.10;;;;;;4828513;29;20065;-77
2023/06/27 12:05:25;;;;;;;7.47;1.67;;;24.80;94.50;;;;;;4835605;29;20047;-78
2023/06/27 12:07:57;;;;;;;7.60;1.77;;;24.70;94.30;;;;;;4829433;29;20050;-78
2023/06/27 12:10:24;;;;;;;7.47;1.65;;;24.70;94.10;;;;;;4824839;29;20141;-78
2023/06/27 12:12:51;;;;;;;6.32;1.63;;;24.80;94.90;;;;;;4825861;29;20050;-77
2023/06/27 12:15:18;;;;;;;5.68;1.65;;;24.80;94.70;;;;;;4829471;29;20137;-78
2023/06/27 12:18:02;;;;;;;6.13;1.52;;;24.90;95.10;;;;;;4828317;29;20053;-78
2023/06/27 12:20:44;;;;;;;10.10;1.85;;;25.00;94.90;;;;;;4833400;29;20079;-78
2023/06/27 12:23:11;;;;;;;4.45;1.60;;;25.00;95.40;;;;;;4828176;29;20527;-77
2023/06/27 12:25:39;;;;;;;6.80;2.22;;;24.90;95.20;;;;;;4826275;29;20151;-78
2023/06/27 12:28:07;;;;;;;6.88;1.83;;;24.90;95.10;;;;;;4826415;29;20103;-78
2023/06/27 12:30:34;;;;;;;4.78;1.77;;;24.80;95.40;;;;;;4829316;29;20107;-78
2023/06/27 12:33:01;;;;;;;6.72;1.80;;;24.80;95.70;;;;;;4826890;29;20062;-78
2023/06/27 12:35:29;;;;;;;4.40;1.83;;;24.80;94.70;;;;;;4834754;29;20513;-78
2023/06/27 12:37:55;;;;;;;6.95;1.80;;;24.80;94.90;;;;;;4831845;29;20428;-76
2023/06/27 12:40:24;;;;;;;5.32;1.52;;;24.80;95.30;;;;;;4825940;29;20054;-77
2023/06/27 12:42:52;;;;;;;4.38;1.52;;;24.80;94.60;;;;;;4833133;29;20055;-76
2023/06/27 12:45:20;;;;;;;5.28;1.52;;;24.80;94.40;;;;;;4835774;29;20122;-77
2023/06/27 12:47:47;;;;;;;5.63;1.75;;;24.90;94.80;;;;;;4836769;29;20058;-77
2023/06/27 12:50:16;;;;;;;6.07;1.75;;;25.00;94.50;;;;;;4840860;29;20085;-77
2023/06/27 12:52:47;;;;;;;4.93;1.42;;;25.00;94.90;;;;;;4838358;29;20133;-77
2023/06/27 12:55:15;;;;;;;8.93;1.83;;;25.00;94.30;;;;;;4834915;29;20087;-78